sensor_id;sensor_type;location;lat;lon;timestamp;P1;durP1;ratioP1;P2;durP2;ratioP2
21206;SDS011;10761;48.532;8.026;2022-11-20T00:01:25;7.40;;;2.33;;
21206;SDS011;10761;48.532;8.026;2022-11-20T00:03:52;2.88;;;2.00;;
21206;SDS011;10761;48.532;8.026;2022-11-20T00:06:19;3.25;;;1.98;;
21206;SDS011;10761;48.532;8.026;2022-11-20T00:08:46;5.13;;;2.25;;
21206;SDS011;10761;48.532;8.026;2022-11-20T00:11:19;3.38;;;2.22;;
21206;SDS011;10761;48.532;8.026;2022-11-20T00:13:46;5.10;;;2.30;;
21206;SDS011;10761;48.532;8.026;2022-11-20T00:16:14;3.75;;;1.90;;
21206;SDS011;10761;48.532;8.026;2022-11-20T00:18:41;3.47;;;2.00;;
21206;SDS011;10761;48.532;8.026;2022-11-20T00:21:10;2.45;;;2.00;;
21206;SDS011;10761;48.532;8.026;2022-11-20T00:23:40;3.47;;;2.65;;
21206;SDS011;10761;48.532;8.026;2022-11-20T00:26:07;3.85;;;2.42;;
21206;SDS011;10761;48.532;8.026;2022-11-20T00:28:34;4.35;;;2.70;;
21206;SDS011;10761;48.532;8.026;2022-11-20T00:31:21;3.72;;;2.55;;
21206;SDS011;10761;48.532;8.026;2022-11-20T00:33:47;6.43;;;2.38;;
21206;SDS011;10761;48.532;8.026;2022-11-20T00:36:13;4.75;;;2.50;;
21206;SDS011;10761;48.532;8.026;2022-11-20T00:38:40;5.32;;;2.33;;
21206;SDS011;10761;48.532;8.026;2022-11-20T00:41:08;4.45;;;2.70;;
21206;SDS011;10761;48.532;8.026;2022-11-20T00:43:36;3.70;;;2.50;;
21206;SDS011;10761;48.532;8.026;2022-11-20T00:46:04;4.55;;;2.80;;
21206;SDS011;10761;48.532;8.026;2022-11-20T00:48:31;3.88;;;2.50;;
21206;SDS011;10761;48.532;8.026;2022-11-20T00:50:57;7.45;;;3.70;;
21206;SDS011;10761;48.532;8.026;2022-11-20T00:53:23;5.28;;;2.55;;
21206;SDS011;10761;48.532;8.026;2022-11-20T00:58:21;4.43;;;2.53;;
21206;SDS011;10761;48.532;8.026;2022-11-20T01:00:47;4.88;;;2.75;;
21206;SDS011;10761;48.532;8.026;2022-11-20T01:03:14;3.58;;;2.28;;
21206;SDS011;10761;48.532;8.026;2022-11-20T01:05:41;3.80;;;2.90;;
21206;SDS011;10761;48.532;8.026;2022-11-20T01:08:06;4.05;;;2.63;;
21206;SDS011;10761;48.532;8.026;2022-11-20T01:10:32;4.72;;;2.80;;
21206;SDS011;10761;48.532;8.026;2022-11-20T01:12:58;6.22;;;2.90;;
21206;SDS011;10761;48.532;8.026;2022-11-20T01:15:53;7.88;;;3.05;;
21206;SDS011;10761;48.532;8.026;2022-11-20T01:18:18;4.72;;;2.80;;
21206;SDS011;10761;48.532;8.026;2022-11-20T01:20:44;5.10;;;2.58;;
21206;SDS011;10761;48.532;8.026;2022-11-20T01:23:10;5.35;;;2.72;;
21206;SDS011;10761;48.532;8.026;2022-11-20T01:25:35;4.85;;;2.80;;
21206;SDS011;10761;48.532;8.026;2022-11-20T01:28:01;4.30;;;2.40;;
21206;SDS011;10761;48.532;8.026;2022-11-20T01:30:26;4.45;;;2.60;;
21206;SDS011;10761;48.532;8.026;2022-11-20T01:32:54;8.07;;;2.85;;
21206;SDS011;10761;48.532;8.026;2022-11-20T01:35:20;3.70;;;2.53;;
21206;SDS011;10761;48.532;8.026;2022-11-20T01:37:46;3.65;;;2.50;;
21206;SDS011;10761;48.532;8.026;2022-11-20T01:40:11;6.22;;;2.60;;
21206;SDS011;10761;48.532;8.026;2022-11-20T01:42:37;3.67;;;2.80;;
21206;SDS011;10761;48.532;8.026;2022-11-20T01:48:19;3.35;;;2.70;;
21206;SDS011;10761;48.532;8.026;2022-11-20T01:50:49;4.90;;;2.65;;
21206;SDS011;10761;48.532;8.026;2022-11-20T01:53:16;5.03;;;2.67;;
21206;SDS011;10761;48.532;8.026;2022-11-20T01:55:45;3.85;;;2.42;;
21206;SDS011;10761;48.532;8.026;2022-11-20T01:58:16;4.25;;;2.70;;
21206;SDS011;10761;48.532;8.026;2022-11-20T02:00:47;7.28;;;2.90;;
21206;SDS011;10761;48.532;8.026;2022-11-20T02:03:15;4.45;;;2.75;;
21206;SDS011;10761;48.532;8.026;2022-11-20T02:08:24;4.25;;;2.55;;
21206;SDS011;10761;48.532;8.026;2022-11-20T02:10:49;4.80;;;2.38;;
21206;SDS011;10761;48.532;8.026;2022-11-20T02:13:15;2.75;;;2.30;;
21206;SDS011;10761;48.532;8.026;2022-11-20T02:16:00;4.20;;;2.40;;
21206;SDS011;10761;48.532;8.026;2022-11-20T02:18:27;3.45;;;2.30;;
21206;SDS011;10761;48.532;8.026;2022-11-20T02:20:54;4.10;;;2.65;;
21206;SDS011;10761;48.532;8.026;2022-11-20T02:23:32;2.78;;;2.03;;
21206;SDS011;10761;48.532;8.026;2022-11-20T02:26:03;3.40;;;2.38;;
21206;SDS011;10761;48.532;8.026;2022-11-20T02:28:33;2.65;;;2.00;;
21206;SDS011;10761;48.532;8.026;2022-11-20T02:31:00;2.65;;;1.75;;
21206;SDS011;10761;48.532;8.026;2022-11-20T02:33:26;2.92;;;2.00;;
21206;SDS011;10761;48.532;8.026;2022-11-20T02:35:51;4.95;;;2.10;;
21206;SDS011;10761;48.532;8.026;2022-11-20T02:38:17;2.35;;;2.00;;
21206;SDS011;10761;48.532;8.026;2022-11-20T02:40:43;4.90;;;2.17;;
21206;SDS011;10761;48.532;8.026;2022-11-20T02:43:08;3.50;;;1.88;;
21206;SDS011;10761;48.532;8.026;2022-11-20T02:45:34;2.60;;;1.88;;
21206;SDS011;10761;48.532;8.026;2022-11-20T02:48:00;2.88;;;2.25;;
21206;SDS011;10761;48.532;8.026;2022-11-20T02:50:25;5.45;;;2.25;;
21206;SDS011;10761;48.532;8.026;2022-11-20T02:52:51;4.28;;;2.10;;
21206;SDS011;10761;48.532;8.026;2022-11-20T02:55:17;3.50;;;2.20;;
21206;SDS011;10761;48.532;8.026;2022-11-20T02:57:42;3.25;;;2.45;;
21206;SDS011;10761;48.532;8.026;2022-11-20T03:00:08;5.38;;;2.30;;
21206;SDS011;10761;48.532;8.026;2022-11-20T03:02:34;3.47;;;2.47;;
21206;SDS011;10761;48.532;8.026;2022-11-20T03:05:00;3.85;;;2.20;;
21206;SDS011;10761;48.532;8.026;2022-11-20T03:07:26;3.80;;;2.33;;
21206;SDS011;10761;48.532;8.026;2022-11-20T03:09:51;4.55;;;2.80;;
21206;SDS011;10761;48.532;8.026;2022-11-20T03:12:17;4.35;;;2.05;;
21206;SDS011;10761;48.532;8.026;2022-11-20T03:14:42;5.75;;;2.25;;
21206;SDS011;10761;48.532;8.026;2022-11-20T03:17:08;2.63;;;2.22;;
21206;SDS011;10761;48.532;8.026;2022-11-20T03:19:34;3.05;;;2.03;;
21206;SDS011;10761;48.532;8.026;2022-11-20T03:22:00;3.28;;;1.98;;
21206;SDS011;10761;48.532;8.026;2022-11-20T03:24:25;2.95;;;2.08;;
21206;SDS011;10761;48.532;8.026;2022-11-20T03:26:51;3.85;;;1.98;;
21206;SDS011;10761;48.532;8.026;2022-11-20T03:29:17;2.95;;;2.00;;
21206;SDS011;10761;48.532;8.026;2022-11-20T03:31:42;2.72;;;2.03;;
21206;SDS011;10761;48.532;8.026;2022-11-20T03:34:09;2.53;;;1.85;;
21206;SDS011;10761;48.532;8.026;2022-11-20T03:36:39;2.13;;;1.80;;
21206;SDS011;10761;48.532;8.026;2022-11-20T03:39:05;2.55;;;2.15;;
21206;SDS011;10761;48.532;8.026;2022-11-20T03:41:35;2.70;;;2.00;;
21206;SDS011;10761;48.532;8.026;2022-11-20T03:44:03;4.32;;;2.30;;
21206;SDS011;10761;48.532;8.026;2022-11-20T03:46:30;2.33;;;1.75;;
21206;SDS011;10761;48.532;8.026;2022-11-20T03:48:56;3.83;;;1.98;;
21206;SDS011;10761;48.532;8.026;2022-11-20T03:51:23;4.07;;;2.00;;
21206;SDS011;10761;48.532;8.026;2022-11-20T03:53:51;2.53;;;1.98;;
21206;SDS011;10761;48.532;8.026;2022-11-20T03:56:19;4.45;;;2.00;;
21206;SDS011;10761;48.532;8.026;2022-11-20T03:58:47;3.33;;;1.77;;
21206;SDS011;10761;48.532;8.026;2022-11-20T04:01:14;3.72;;;1.75;;
21206;SDS011;10761;48.532;8.026;2022-11-20T04:03:41;3.35;;;1.80;;
21206;SDS011;10761;48.532;8.026;2022-11-20T04:08:38;7.07;;;2.30;;
21206;SDS011;10761;48.532;8.026;2022-11-20T04:11:10;3.42;;;1.85;;
21206;SDS011;10761;48.532;8.026;2022-11-20T04:13:37;2.20;;;2.00;;
21206;SDS011;10761;48.532;8.026;2022-11-20T04:16:04;5.25;;;2.38;;
21206;SDS011;10761;48.532;8.026;2022-11-20T04:18:30;7.22;;;2.53;;
21206;SDS011;10761;48.532;8.026;2022-11-20T04:20:58;4.35;;;2.42;;
21206;SDS011;10761;48.532;8.026;2022-11-20T04:23:24;5.88;;;2.70;;
21206;SDS011;10761;48.532;8.026;2022-11-20T04:25:50;5.50;;;2.47;;
21206;SDS011;10761;48.532;8.026;2022-11-20T04:28:16;5.43;;;2.72;;
21206;SDS011;10761;48.532;8.026;2022-11-20T04:30:42;5.57;;;2.80;;
21206;SDS011;10761;48.532;8.026;2022-11-20T04:33:08;3.53;;;2.60;;
21206;SDS011;10761;48.532;8.026;2022-11-20T04:35:34;3.92;;;2.97;;
21206;SDS011;10761;48.532;8.026;2022-11-20T04:38:00;4.30;;;2.55;;
21206;SDS011;10761;48.532;8.026;2022-11-20T04:40:27;5.80;;;3.20;;
21206;SDS011;10761;48.532;8.026;2022-11-20T04:42:53;5.32;;;3.20;;
21206;SDS011;10761;48.532;8.026;2022-11-20T04:45:19;4.78;;;3.10;;
21206;SDS011;10761;48.532;8.026;2022-11-20T04:47:45;4.82;;;2.97;;
21206;SDS011;10761;48.532;8.026;2022-11-20T04:50:10;5.00;;;3.22;;
21206;SDS011;10761;48.532;8.026;2022-11-20T04:52:36;4.50;;;3.42;;
21206;SDS011;10761;48.532;8.026;2022-11-20T04:55:02;5.60;;;3.53;;
21206;SDS011;10761;48.532;8.026;2022-11-20T04:57:27;6.15;;;3.40;;
21206;SDS011;10761;48.532;8.026;2022-11-20T04:59:53;5.72;;;3.45;;
21206;SDS011;10761;48.532;8.026;2022-11-20T05:02:19;7.28;;;3.95;;
21206;SDS011;10761;48.532;8.026;2022-11-20T05:04:44;5.05;;;3.58;;
21206;SDS011;10761;48.532;8.026;2022-11-20T05:07:10;4.68;;;3.28;;
21206;SDS011;10761;48.532;8.026;2022-11-20T05:09:36;5.13;;;3.00;;
21206;SDS011;10761;48.532;8.026;2022-11-20T05:12:01;3.85;;;2.47;;
21206;SDS011;10761;48.532;8.026;2022-11-20T05:14:27;5.65;;;2.30;;
21206;SDS011;10761;48.532;8.026;2022-11-20T05:16:52;4.72;;;2.78;;
21206;SDS011;10761;48.532;8.026;2022-11-20T05:19:18;2.80;;;1.90;;
21206;SDS011;10761;48.532;8.026;2022-11-20T05:21:44;3.90;;;2.17;;
21206;SDS011;10761;48.532;8.026;2022-11-20T05:24:09;2.17;;;1.55;;
21206;SDS011;10761;48.532;8.026;2022-11-20T05:26:35;5.80;;;2.00;;
21206;SDS011;10761;48.532;8.026;2022-11-20T05:29:00;3.45;;;2.03;;
21206;SDS011;10761;48.532;8.026;2022-11-20T05:31:27;3.95;;;2.10;;
21206;SDS011;10761;48.532;8.026;2022-11-20T05:33:52;4.47;;;2.20;;
21206;SDS011;10761;48.532;8.026;2022-11-20T05:36:18;4.15;;;2.17;;
21206;SDS011;10761;48.532;8.026;2022-11-20T05:38:44;4.53;;;1.90;;
21206;SDS011;10761;48.532;8.026;2022-11-20T05:41:11;2.85;;;1.88;;
21206;SDS011;10761;48.532;8.026;2022-11-20T05:43:43;9.32;;;1.98;;
21206;SDS011;10761;48.532;8.026;2022-11-20T05:46:10;1.75;;;1.65;;
21206;SDS011;10761;48.532;8.026;2022-11-20T05:48:38;3.83;;;2.10;;
21206;SDS011;10761;48.532;8.026;2022-11-20T05:51:05;2.42;;;1.83;;
21206;SDS011;10761;48.532;8.026;2022-11-20T05:53:33;2.08;;;1.67;;
21206;SDS011;10761;48.532;8.026;2022-11-20T05:56:00;3.85;;;1.90;;
21206;SDS011;10761;48.532;8.026;2022-11-20T05:58:28;2.88;;;1.70;;
21206;SDS011;10761;48.532;8.026;2022-11-20T06:00:54;1.70;;;1.40;;
21206;SDS011;10761;48.532;8.026;2022-11-20T06:03:20;2.95;;;1.90;;
21206;SDS011;10761;48.532;8.026;2022-11-20T06:05:45;2.97;;;1.90;;
21206;SDS011;10761;48.532;8.026;2022-11-20T06:08:11;3.08;;;2.10;;
21206;SDS011;10761;48.532;8.026;2022-11-20T06:10:37;4.30;;;2.03;;
21206;SDS011;10761;48.532;8.026;2022-11-20T06:13:03;2.42;;;2.08;;
21206;SDS011;10761;48.532;8.026;2022-11-20T06:15:28;2.47;;;2.13;;
21206;SDS011;10761;48.532;8.026;2022-11-20T06:17:54;3.45;;;2.10;;
21206;SDS011;10761;48.532;8.026;2022-11-20T06:20:21;4.68;;;2.22;;
21206;SDS011;10761;48.532;8.026;2022-11-20T06:22:46;2.95;;;1.98;;
21206;SDS011;10761;48.532;8.026;2022-11-20T06:25:12;3.58;;;1.92;;
21206;SDS011;10761;48.532;8.026;2022-11-20T06:27:38;5.25;;;2.55;;
21206;SDS011;10761;48.532;8.026;2022-11-20T06:30:04;4.45;;;1.90;;
21206;SDS011;10761;48.532;8.026;2022-11-20T06:32:30;2.30;;;1.60;;
21206;SDS011;10761;48.532;8.026;2022-11-20T06:34:56;2.15;;;1.50;;
21206;SDS011;10761;48.532;8.026;2022-11-20T06:37:21;2.42;;;1.70;;
21206;SDS011;10761;48.532;8.026;2022-11-20T06:39:47;1.85;;;1.40;;
21206;SDS011;10761;48.532;8.026;2022-11-20T06:42:13;2.97;;;1.70;;
21206;SDS011;10761;48.532;8.026;2022-11-20T06:44:38;2.17;;;1.50;;
21206;SDS011;10761;48.532;8.026;2022-11-20T06:47:04;2.17;;;1.40;;
21206;SDS011;10761;48.532;8.026;2022-11-20T06:49:29;1.58;;;1.10;;
21206;SDS011;10761;48.532;8.026;2022-11-20T06:51:55;2.28;;;1.50;;
21206;SDS011;10761;48.532;8.026;2022-11-20T06:54:20;1.83;;;1.45;;
21206;SDS011;10761;48.532;8.026;2022-11-20T06:56:47;1.80;;;1.40;;
21206;SDS011;10761;48.532;8.026;2022-11-20T06:59:13;3.22;;;1.30;;
21206;SDS011;10761;48.532;8.026;2022-11-20T07:01:39;1.63;;;1.27;;
21206;SDS011;10761;48.532;8.026;2022-11-20T07:04:05;1.38;;;1.27;;
21206;SDS011;10761;48.532;8.026;2022-11-20T07:06:30;1.73;;;1.20;;
21206;SDS011;10761;48.532;8.026;2022-11-20T07:08:56;2.75;;;1.25;;
21206;SDS011;10761;48.532;8.026;2022-11-20T07:11:23;2.38;;;1.48;;
21206;SDS011;10761;48.532;8.026;2022-11-20T07:13:49;2.03;;;1.40;;
21206;SDS011;10761;48.532;8.026;2022-11-20T07:16:14;2.65;;;1.23;;
21206;SDS011;10761;48.532;8.026;2022-11-20T07:18:40;2.03;;;1.10;;
21206;SDS011;10761;48.532;8.026;2022-11-20T07:21:07;1.95;;;1.30;;
21206;SDS011;10761;48.532;8.026;2022-11-20T07:23:34;1.60;;;1.50;;
21206;SDS011;10761;48.532;8.026;2022-11-20T07:26:07;1.65;;;1.50;;
21206;SDS011;10761;48.532;8.026;2022-11-20T07:28:35;1.92;;;1.58;;
21206;SDS011;10761;48.532;8.026;2022-11-20T07:31:01;2.55;;;1.50;;
21206;SDS011;10761;48.532;8.026;2022-11-20T07:33:27;3.33;;;1.50;;
21206;SDS011;10761;48.532;8.026;2022-11-20T07:35:53;1.67;;;1.58;;
21206;SDS011;10761;48.532;8.026;2022-11-20T07:38:19;1.60;;;1.50;;
21206;SDS011;10761;48.532;8.026;2022-11-20T07:40:45;2.25;;;1.40;;
21206;SDS011;10761;48.532;8.026;2022-11-20T07:43:10;2.50;;;1.70;;
21206;SDS011;10761;48.532;8.026;2022-11-20T07:45:36;2.63;;;1.70;;
21206;SDS011;10761;48.532;8.026;2022-11-20T07:48:01;2.17;;;1.98;;
21206;SDS011;10761;48.532;8.026;2022-11-20T07:50:27;2.05;;;1.85;;
21206;SDS011;10761;48.532;8.026;2022-11-20T07:52:59;3.03;;;2.10;;
21206;SDS011;10761;48.532;8.026;2022-11-20T07:55:29;2.53;;;2.17;;
21206;SDS011;10761;48.532;8.026;2022-11-20T07:57:55;4.03;;;2.28;;
21206;SDS011;10761;48.532;8.026;2022-11-20T08:00:21;3.60;;;2.50;;
21206;SDS011;10761;48.532;8.026;2022-11-20T08:02:48;3.88;;;2.20;;
21206;SDS011;10761;48.532;8.026;2022-11-20T08:05:13;3.22;;;2.35;;
21206;SDS011;10761;48.532;8.026;2022-11-20T08:07:39;3.22;;;2.60;;
21206;SDS011;10761;48.532;8.026;2022-11-20T08:10:06;2.92;;;2.70;;
21206;SDS011;10761;48.532;8.026;2022-11-20T08:12:33;4.72;;;2.80;;
21206;SDS011;10761;48.532;8.026;2022-11-20T08:15:17;4.60;;;2.85;;
21206;SDS011;10761;48.532;8.026;2022-11-20T08:17:43;4.32;;;2.80;;
21206;SDS011;10761;48.532;8.026;2022-11-20T08:20:09;4.68;;;2.85;;
21206;SDS011;10761;48.532;8.026;2022-11-20T08:22:35;3.17;;;2.60;;
21206;SDS011;10761;48.532;8.026;2022-11-20T08:25:00;7.60;;;2.65;;
21206;SDS011;10761;48.532;8.026;2022-11-20T08:27:26;5.85;;;3.17;;
21206;SDS011;10761;48.532;8.026;2022-11-20T08:29:52;3.55;;;2.20;;
21206;SDS011;10761;48.532;8.026;2022-11-20T08:32:17;6.10;;;3.17;;
21206;SDS011;10761;48.532;8.026;2022-11-20T08:34:43;3.63;;;3.13;;
21206;SDS011;10761;48.532;8.026;2022-11-20T08:37:09;3.42;;;2.90;;
21206;SDS011;10761;48.532;8.026;2022-11-20T08:39:34;3.28;;;2.90;;
21206;SDS011;10761;48.532;8.026;2022-11-20T08:42:00;5.63;;;3.17;;
21206;SDS011;10761;48.532;8.026;2022-11-20T08:44:25;3.05;;;2.60;;
21206;SDS011;10761;48.532;8.026;2022-11-20T08:46:51;3.45;;;2.90;;
21206;SDS011;10761;48.532;8.026;2022-11-20T08:49:17;4.00;;;3.13;;
21206;SDS011;10761;48.532;8.026;2022-11-20T08:51:43;3.15;;;2.70;;
21206;SDS011;10761;48.532;8.026;2022-11-20T08:54:08;4.32;;;2.58;;
21206;SDS011;10761;48.532;8.026;2022-11-20T08:56:34;3.83;;;3.20;;
21206;SDS011;10761;48.532;8.026;2022-11-20T08:59:00;3.22;;;2.60;;
21206;SDS011;10761;48.532;8.026;2022-11-20T09:01:26;4.15;;;2.83;;
21206;SDS011;10761;48.532;8.026;2022-11-20T09:03:57;3.10;;;2.58;;
21206;SDS011;10761;48.532;8.026;2022-11-20T09:06:24;3.53;;;2.88;;
21206;SDS011;10761;48.532;8.026;2022-11-20T09:08:53;3.28;;;2.72;;
21206;SDS011;10761;48.532;8.026;2022-11-20T09:11:19;4.47;;;2.70;;
21206;SDS011;10761;48.532;8.026;2022-11-20T09:13:45;2.95;;;2.53;;
21206;SDS011;10761;48.532;8.026;2022-11-20T09:16:11;3.58;;;2.40;;
21206;SDS011;10761;48.532;8.026;2022-11-20T09:18:36;3.17;;;2.13;;
21206;SDS011;10761;48.532;8.026;2022-11-20T09:21:04;4.55;;;2.45;;
21206;SDS011;10761;48.532;8.026;2022-11-20T09:23:32;3.17;;;2.13;;
21206;SDS011;10761;48.532;8.026;2022-11-20T09:26:07;3.67;;;2.00;;
21206;SDS011;10761;48.532;8.026;2022-11-20T09:28:36;5.18;;;2.50;;
21206;SDS011;10761;48.532;8.026;2022-11-20T09:31:06;2.83;;;2.15;;
21206;SDS011;10761;48.532;8.026;2022-11-20T09:33:32;3.03;;;2.38;;
21206;SDS011;10761;48.532;8.026;2022-11-20T09:35:58;4.47;;;2.40;;
21206;SDS011;10761;48.532;8.026;2022-11-20T09:38:23;3.17;;;2.10;;
21206;SDS011;10761;48.532;8.026;2022-11-20T09:46:23;4.10;;;2.17;;
21206;SDS011;10761;48.532;8.026;2022-11-20T09:51:31;3.42;;;2.78;;
21206;SDS011;10761;48.532;8.026;2022-11-20T09:56:43;3.72;;;2.25;;
21206;SDS011;10761;48.532;8.026;2022-11-20T09:59:27;3.60;;;2.50;;
21206;SDS011;10761;48.532;8.026;2022-11-20T10:02:01;4.03;;;2.20;;
21206;SDS011;10761;48.532;8.026;2022-11-20T10:04:31;5.43;;;2.40;;
21206;SDS011;10761;48.532;8.026;2022-11-20T10:07:07;2.47;;;2.20;;
21206;SDS011;10761;48.532;8.026;2022-11-20T10:09:39;3.72;;;2.13;;
21206;SDS011;10761;48.532;8.026;2022-11-20T10:15:02;4.03;;;2.30;;
21206;SDS011;10761;48.532;8.026;2022-11-20T10:20:24;5.60;;;2.47;;
21206;SDS011;10761;48.532;8.026;2022-11-20T10:25:40;4.47;;;2.28;;
21206;SDS011;10761;48.532;8.026;2022-11-20T10:31:09;5.80;;;2.13;;
21206;SDS011;10761;48.532;8.026;2022-11-20T10:33:40;3.85;;;2.30;;
21206;SDS011;10761;48.532;8.026;2022-11-20T10:36:12;6.95;;;2.33;;
21206;SDS011;10761;48.532;8.026;2022-11-20T10:38:52;4.60;;;2.13;;
21206;SDS011;10761;48.532;8.026;2022-11-20T10:41:21;4.45;;;2.17;;
21206;SDS011;10761;48.532;8.026;2022-11-20T10:44:09;2.53;;;1.83;;
21206;SDS011;10761;48.532;8.026;2022-11-20T10:46:48;3.92;;;1.90;;
21206;SDS011;10761;48.532;8.026;2022-11-20T10:49:14;5.00;;;2.05;;
21206;SDS011;10761;48.532;8.026;2022-11-20T10:56:56;3.20;;;1.83;;
21206;SDS011;10761;48.532;8.026;2022-11-20T11:02:17;2.58;;;1.85;;
21206;SDS011;10761;48.532;8.026;2022-11-20T11:04:49;7.22;;;2.30;;
21206;SDS011;10761;48.532;8.026;2022-11-20T11:10:05;2.53;;;1.70;;
21206;SDS011;10761;48.532;8.026;2022-11-20T11:12:42;7.82;;;3.50;;
21206;SDS011;10761;48.532;8.026;2022-11-20T11:18:09;2.92;;;1.40;;
21206;SDS011;10761;48.532;8.026;2022-11-20T11:20:35;4.50;;;1.40;;
21206;SDS011;10761;48.532;8.026;2022-11-20T11:23:01;3.58;;;1.55;;
21206;SDS011;10761;48.532;8.026;2022-11-20T11:25:34;3.33;;;1.40;;
21206;SDS011;10761;48.532;8.026;2022-11-20T11:30:29;6.78;;;2.47;;
21206;SDS011;10761;48.532;8.026;2022-11-20T11:33:06;5.68;;;2.58;;
21206;SDS011;10761;48.532;8.026;2022-11-20T11:35:38;4.47;;;1.77;;
21206;SDS011;10761;48.532;8.026;2022-11-20T11:38:12;4.80;;;2.25;;
21206;SDS011;10761;48.532;8.026;2022-11-20T11:40:44;4.00;;;1.75;;
21206;SDS011;10761;48.532;8.026;2022-11-20T11:43:17;3.10;;;1.25;;
21206;SDS011;10761;48.532;8.026;2022-11-20T11:46:05;3.72;;;1.20;;
21206;SDS011;10761;48.532;8.026;2022-11-20T11:51:38;2.95;;;1.15;;
21206;SDS011;10761;48.532;8.026;2022-11-20T11:54:24;2.85;;;0.90;;
21206;SDS011;10761;48.532;8.026;2022-11-20T11:56:54;2.97;;;0.80;;
21206;SDS011;10761;48.532;8.026;2022-11-20T11:59:27;1.58;;;0.90;;
21206;SDS011;10761;48.532;8.026;2022-11-20T12:02:10;2.78;;;0.95;;
21206;SDS011;10761;48.532;8.026;2022-11-20T12:08:05;3.40;;;0.93;;
21206;SDS011;10761;48.532;8.026;2022-11-20T12:16:04;2.70;;;1.33;;
21206;SDS011;10761;48.532;8.026;2022-11-20T12:18:33;4.57;;;1.10;;
21206;SDS011;10761;48.532;8.026;2022-11-20T12:23:35;4.05;;;1.55;;
21206;SDS011;10761;48.532;8.026;2022-11-20T12:26:06;2.45;;;0.93;;
21206;SDS011;10761;48.532;8.026;2022-11-20T12:28:51;3.17;;;1.15;;
21206;SDS011;10761;48.532;8.026;2022-11-20T12:36:56;2.17;;;0.95;;
21206;SDS011;10761;48.532;8.026;2022-11-20T12:39:34;2.45;;;0.88;;
21206;SDS011;10761;48.532;8.026;2022-11-20T12:45:02;3.88;;;1.00;;
21206;SDS011;10761;48.532;8.026;2022-11-20T13:07:31;2.72;;;1.33;;
21206;SDS011;10761;48.532;8.026;2022-11-20T13:09:57;2.60;;;0.95;;
21206;SDS011;10761;48.532;8.026;2022-11-20T13:15:15;3.00;;;1.20;;
21206;SDS011;10761;48.532;8.026;2022-11-20T13:17:52;3.17;;;1.52;;
21206;SDS011;10761;48.532;8.026;2022-11-20T13:20:22;3.30;;;0.95;;
21206;SDS011;10761;48.532;8.026;2022-11-20T13:22:49;2.50;;;1.00;;
21206;SDS011;10761;48.532;8.026;2022-11-20T13:27:55;2.15;;;1.00;;
21206;SDS011;10761;48.532;8.026;2022-11-20T13:30:23;4.35;;;0.85;;
21206;SDS011;10761;48.532;8.026;2022-11-20T13:35:32;2.65;;;1.00;;
21206;SDS011;10761;48.532;8.026;2022-11-20T13:38:09;1.10;;;0.73;;
21206;SDS011;10761;48.532;8.026;2022-11-20T13:46:04;3.28;;;1.30;;
21206;SDS011;10761;48.532;8.026;2022-11-20T13:48:33;2.30;;;1.00;;
21206;SDS011;10761;48.532;8.026;2022-11-20T13:56:30;3.42;;;1.50;;
21206;SDS011;10761;48.532;8.026;2022-11-20T14:01:48;2.03;;;1.17;;
21206;SDS011;10761;48.532;8.026;2022-11-20T14:04:15;3.38;;;1.00;;
21206;SDS011;10761;48.532;8.026;2022-11-20T14:06:50;2.88;;;1.00;;
21206;SDS011;10761;48.532;8.026;2022-11-20T14:09:26;2.33;;;0.93;;
21206;SDS011;10761;48.532;8.026;2022-11-20T14:11:53;4.32;;;1.00;;
21206;SDS011;10761;48.532;8.026;2022-11-20T14:14:20;1.23;;;0.52;;
21206;SDS011;10761;48.532;8.026;2022-11-20T14:16:47;3.13;;;0.80;;
21206;SDS011;10761;48.532;8.026;2022-11-20T14:21:48;3.67;;;0.95;;
21206;SDS011;10761;48.532;8.026;2022-11-20T14:24:18;3.50;;;0.80;;
21206;SDS011;10761;48.532;8.026;2022-11-20T14:26:46;3.03;;;0.77;;
21206;SDS011;10761;48.532;8.026;2022-11-20T14:29:13;1.55;;;0.70;;
21206;SDS011;10761;48.532;8.026;2022-11-20T14:31:41;4.18;;;0.90;;
21206;SDS011;10761;48.532;8.026;2022-11-20T14:34:18;2.88;;;1.10;;
21206;SDS011;10761;48.532;8.026;2022-11-20T14:36:47;3.10;;;1.00;;
21206;SDS011;10761;48.532;8.026;2022-11-20T14:39:25;1.58;;;0.68;;
21206;SDS011;10761;48.532;8.026;2022-11-20T14:42:03;1.38;;;0.90;;
21206;SDS011;10761;48.532;8.026;2022-11-20T14:44:38;2.15;;;0.98;;
21206;SDS011;10761;48.532;8.026;2022-11-20T14:47:05;3.47;;;1.60;;
21206;SDS011;10761;48.532;8.026;2022-11-20T14:49:31;2.50;;;1.10;;
21206;SDS011;10761;48.532;8.026;2022-11-20T14:52:10;3.25;;;1.00;;
21206;SDS011;10761;48.532;8.026;2022-11-20T14:54:44;2.22;;;0.80;;
21206;SDS011;10761;48.532;8.026;2022-11-20T14:57:20;1.75;;;0.75;;
21206;SDS011;10761;48.532;8.026;2022-11-20T14:59:47;2.05;;;0.68;;
21206;SDS011;10761;48.532;8.026;2022-11-20T15:02:13;2.00;;;0.80;;
21206;SDS011;10761;48.532;8.026;2022-11-20T15:04:48;1.60;;;0.90;;
21206;SDS011;10761;48.532;8.026;2022-11-20T15:07:25;2.78;;;0.90;;
21206;SDS011;10761;48.532;8.026;2022-11-20T15:10:00;2.75;;;0.95;;
21206;SDS011;10761;48.532;8.026;2022-11-20T15:12:25;2.10;;;0.90;;
21206;SDS011;10761;48.532;8.026;2022-11-20T15:14:51;3.28;;;0.90;;
21206;SDS011;10761;48.532;8.026;2022-11-20T15:17:17;2.83;;;1.23;;
21206;SDS011;10761;48.532;8.026;2022-11-20T15:19:42;4.25;;;1.20;;
21206;SDS011;10761;48.532;8.026;2022-11-20T15:22:11;1.83;;;1.08;;
21206;SDS011;10761;48.532;8.026;2022-11-20T15:24:41;2.97;;;1.13;;
21206;SDS011;10761;48.532;8.026;2022-11-20T15:27:07;2.10;;;1.10;;
21206;SDS011;10761;48.532;8.026;2022-11-20T15:29:34;1.85;;;1.30;;
21206;SDS011;10761;48.532;8.026;2022-11-20T15:31:59;3.00;;;1.35;;
21206;SDS011;10761;48.532;8.026;2022-11-20T15:34:26;3.63;;;1.20;;
21206;SDS011;10761;48.532;8.026;2022-11-20T15:36:52;4.68;;;1.27;;
21206;SDS011;10761;48.532;8.026;2022-11-20T15:39:19;2.42;;;1.20;;
21206;SDS011;10761;48.532;8.026;2022-11-20T15:41:45;2.85;;;1.20;;
21206;SDS011;10761;48.532;8.026;2022-11-20T15:44:11;3.50;;;1.20;;
21206;SDS011;10761;48.532;8.026;2022-11-20T15:46:38;3.20;;;1.10;;
21206;SDS011;10761;48.532;8.026;2022-11-20T15:49:11;4.00;;;1.30;;
21206;SDS011;10761;48.532;8.026;2022-11-20T15:51:46;3.47;;;1.05;;
21206;SDS011;10761;48.532;8.026;2022-11-20T15:54:17;1.63;;;1.10;;
21206;SDS011;10761;48.532;8.026;2022-11-20T15:56:45;2.20;;;0.98;;
21206;SDS011;10761;48.532;8.026;2022-11-20T15:59:12;3.25;;;1.00;;
21206;SDS011;10761;48.532;8.026;2022-11-20T16:01:40;2.75;;;1.00;;
21206;SDS011;10761;48.532;8.026;2022-11-20T16:04:13;1.80;;;0.90;;
21206;SDS011;10761;48.532;8.026;2022-11-20T16:06:40;6.20;;;1.10;;
21206;SDS011;10761;48.532;8.026;2022-11-20T16:09:05;5.45;;;2.13;;
21206;SDS011;10761;48.532;8.026;2022-11-20T16:11:32;2.88;;;1.40;;
21206;SDS011;10761;48.532;8.026;2022-11-20T16:13:58;4.20;;;1.67;;
21206;SDS011;10761;48.532;8.026;2022-11-20T16:16:42;3.00;;;1.00;;
21206;SDS011;10761;48.532;8.026;2022-11-20T16:19:14;3.65;;;1.10;;
21206;SDS011;10761;48.532;8.026;2022-11-20T16:21:40;3.97;;;1.00;;
21206;SDS011;10761;48.532;8.026;2022-11-20T16:24:06;2.90;;;0.90;;
21206;SDS011;10761;48.532;8.026;2022-11-20T16:26:34;4.35;;;1.15;;
21206;SDS011;10761;48.532;8.026;2022-11-20T16:29:00;3.42;;;1.00;;
21206;SDS011;10761;48.532;8.026;2022-11-20T16:31:27;3.42;;;1.10;;
21206;SDS011;10761;48.532;8.026;2022-11-20T16:33:54;4.97;;;1.08;;
21206;SDS011;10761;48.532;8.026;2022-11-20T16:36:22;7.97;;;1.98;;
21206;SDS011;10761;48.532;8.026;2022-11-20T16:38:53;4.75;;;1.10;;
21206;SDS011;10761;48.532;8.026;2022-11-20T16:41:20;3.13;;;1.20;;
21206;SDS011;10761;48.532;8.026;2022-11-20T16:43:47;2.85;;;1.00;;
21206;SDS011;10761;48.532;8.026;2022-11-20T16:46:15;2.15;;;1.00;;
21206;SDS011;10761;48.532;8.026;2022-11-20T16:48:45;3.10;;;1.15;;
21206;SDS011;10761;48.532;8.026;2022-11-20T16:51:21;3.80;;;0.90;;